Squaw Valley, California
Current Conditions -  °F | °C
As of 8:53 PM on Thursday 30 Oct 2014 (Local Time) from KFAT Reporting Station
Scattered Clouds Scattered Clouds  
Wind Chill: 71°   Ceiling: Unl
Heat Index: 71°   Visibility: 10mi
Dew Point: 47°   Wind: 7mph
Humidity: 42%   Direction: 20°NNE
Pressure: 29.88"   Gusts: NA
Location:  36.74°N, 119.25°W
Report Text: KFAT 310353Z 02006KT 10SM FEW150 SCT200 22/08 A2988 RMK AO2 SLP115 T02170083
Loading
Personal Weather Stations






























Interactive Weather Map
Tropical Storm Tracking
New forecast layout! Learn more

10-Day Weather Forecast

Advertisements
Track Severe Weather on mobile